Time,TemperatureF,DewpointF,PressureIn,WindDirection,WindDirectionDegrees,WindSpeedMPH,WindSpeedGustMPH,Humidity,HourlyPrecipIn,Conditions,Clouds,dailyrainin,SolarRadiationWatts/m^2,SoftwareType,DateUTC
2013-05-02 00:02:00,58.1,39.0,30.04,WNW,294,0.0,1.0,50,0.00,,,0.00,0,weatherlink.com 1.10,2013-05-02 07:02:00,
2013-05-02 00:17:00,58.0,39.0,30.05,North,355,0.0,6.0,49,0.00,,,0.00,0,weatherlink.com 1.10,2013-05-02 07:17:00,
2013-05-02 00:32:00,58.3,40.0,30.05,North,5,2.0,4.0,50,0.00,,,0.00,0,weatherlink.com 1.10,2013-05-02 07:32:00,
2013-05-02 00:47:00,58.2,40.0,30.06,North,355,0.0,2.0,51,0.00,,,0.00,0,weatherlink.com 1.10,2013-05-02 07:47:00,
2013-05-02 01:02:00,57.5,42.0,30.06,North,355,0.0,2.0,56,0.00,,,0.00,0,weatherlink.com 1.10,2013-05-02 08:02:00,
2013-05-02 01:17:00,56.5,42.0,30.07,North,355,0.0,0.0,59,0.00,,,0.00,0,weatherlink.com 1.10,2013-05-02 08:17:00,
2013-05-02 01:32:00,55.5,41.0,30.07,North,355,0.0,1.0,59,0.00,,,0.00,0,weatherlink.com 1.10,2013-05-02 08:32:00,
2013-05-02 01:47:00,55.0,39.0,30.07,North,360,3.0,4.0,56,0.00,,,0.00,0,weatherlink.com 1.10,2013-05-02 08:47:00,
2013-05-02 02:02:00,55.7,38.0,30.08,North,355,2.0,5.0,52,0.00,,,0.00,0,weatherlink.com 1.10,2013-05-02 09:02:00,
2013-05-02 02:17:00,56.5,38.0,30.08,NE,37,5.0,6.0,51,0.00,,,0.00,0,weatherlink.com 1.10,2013-05-02 09:17:00,
2013-05-02 02:32:00,57.2,37.0,30.08,North,360,2.0,6.0,48,0.00,,,0.00,0,weatherlink.com 1.10,2013-05-02 09:32:00,
2013-05-02 02:47:00,57.5,37.0,30.08,North,355,2.0,6.0,46,0.00,,,0.00,0,weatherlink.com 1.10,2013-05-02 09:47:00,
2013-05-02 03:02:00,57.4,37.0,30.08,NE,37,2.0,5.0,47,0.00,,,0.00,0,weatherlink.com 1.10,2013-05-02 10:02:00,
2013-05-02 03:17:00,57.1,37.0,30.08,North,355,2.0,6.0,47,0.00,,,0.00,0,weatherlink.com 1.10,2013-05-02 10:17:00,
2013-05-02 03:32:00,56.8,37.0,30.09,North,360,4.0,6.0,47,0.00,,,0.00,0,weatherlink.com 1.10,2013-05-02 10:32:00,
2013-05-02 03:47:00,56.7,36.0,30.09,North,9,4.0,6.0,46,0.00,,,0.00,0,weatherlink.com 1.10,2013-05-02 10:47:00,
2013-05-02 04:02:00,56.2,36.0,30.09,North,5,0.0,5.0,47,0.00,,,0.00,0,weatherlink.com 1.10,2013-05-02 11:02:00,
2013-05-02 04:17:00,55.5,36.0,30.09,NNE,25,2.0,5.0,48,0.00,,,0.00,0,weatherlink.com 1.10,2013-05-02 11:17:00,
2013-05-02 04:32:00,55.0,36.0,30.10,North,355,3.0,4.0,49,0.00,,,0.00,0,weatherlink.com 1.10,2013-05-02 11:32:00,
2013-05-02 04:47:00,55.0,35.0,30.10,NNE,21,1.0,7.0,47,0.00,,,0.00,0,weatherlink.com 1.10,2013-05-02 11:47:00,
2013-05-02 05:02:00,55.5,34.0,30.10,NNE,18,5.0,7.0,45,0.00,,,0.00,0,weatherlink.com 1.10,2013-05-02 12:02:00,
2013-05-02 05:17:00,55.7,34.0,30.10,North,360,5.0,7.0,44,0.00,,,0.00,0,weatherlink.com 1.10,2013-05-02 12:17:00,
2013-05-02 05:32:00,55.5,34.0,30.10,North,5,3.0,8.0,45,0.00,,,0.00,0,weatherlink.com 1.10,2013-05-02 12:32:00,
2013-05-02 05:47:00,55.0,34.0,30.10,NNE,24,2.0,6.0,45,0.00,,,0.00,0,weatherlink.com 1.10,2013-05-02 12:47:00,
2013-05-02 06:02:00,54.6,33.0,30.11,NNW,343,2.0,5.0,45,0.00,,,0.00,0,weatherlink.com 1.10,2013-05-02 13:02:00,
2013-05-02 06:17:00,54.6,33.0,30.12,NNE,22,2.0,6.0,45,0.00,,,0.00,7,weatherlink.com 1.10,2013-05-02 13:17:00,
2013-05-02 06:32:00,54.3,34.0,30.12,North,360,3.0,6.0,47,0.00,,,0.00,18,weatherlink.com 1.10,2013-05-02 13:32:00,
2013-05-02 06:47:00,54.5,34.0,30.13,NNE,15,1.0,5.0,47,0.00,,,0.00,35,weatherlink.com 1.10,2013-05-02 13:47:00,
2013-05-02 07:02:00,55.1,35.0,30.13,North,5,4.0,6.0,47,0.00,,,0.00,39,weatherlink.com 1.10,2013-05-02 14:02:00,
2013-05-02 07:18:00,56.5,36.0,30.13,NNE,12,3.0,7.0,46,0.00,,,0.00,47,weatherlink.com 1.10,2013-05-02 14:18:00,
2013-05-02 07:33:00,58.0,37.0,30.14,NNE,13,5.0,8.0,45,0.00,,,0.00,190,weatherlink.com 1.10,2013-05-02 14:33:00,
2013-05-02 07:48:00,59.2,38.0,30.14,North,360,6.0,9.0,46,0.00,,,0.00,237,weatherlink.com 1.10,2013-05-02 14:48:00,
2013-05-02 08:03:00,61.8,37.0,30.14,North,5,5.0,9.0,40,0.00,,,0.00,283,weatherlink.com 1.10,2013-05-02 15:03:00,
2013-05-02 08:18:00,64.4,38.0,30.14,NNE,24,2.0,11.0,38,0.00,,,0.00,327,weatherlink.com 1.10,2013-05-02 15:18:00,
2013-05-02 08:33:00,66.7,37.0,30.14,NNW,347,8.0,13.0,34,0.00,,,0.00,373,weatherlink.com 1.10,2013-05-02 15:33:00,
2013-05-02 08:48:00,68.3,38.0,30.14,North,9,4.0,16.0,33,0.00,,,0.00,415,weatherlink.com 1.10,2013-05-02 15:48:00,
2013-05-02 09:03:00,69.6,38.0,30.14,NNW,339,9.0,14.0,32,0.00,,,0.00,464,weatherlink.com 1.10,2013-05-02 16:03:00,
2013-05-02 09:18:00,70.9,37.0,30.15,NNE,28,4.0,17.0,29,0.00,,,0.00,508,weatherlink.com 1.10,2013-05-02 16:18:00,
2013-05-02 09:33:00,72.1,40.0,30.14,NNE,32,5.0,13.0,31,0.00,,,0.00,552,weatherlink.com 1.10,2013-05-02 16:33:00,
2013-05-02 09:48:00,73.4,40.0,30.15,NNW,340,2.0,12.0,30,0.00,,,0.00,589,weatherlink.com 1.10,2013-05-02 16:48:00,
2013-05-02 10:03:00,74.4,40.0,30.15,NNE,15,6.0,12.0,29,0.00,,,0.00,631,weatherlink.com 1.10,2013-05-02 17:03:00,
2013-05-02 10:18:00,75.7,39.0,30.15,NNE,25,4.0,9.0,27,0.00,,,0.00,666,weatherlink.com 1.10,2013-05-02 17:18:00,
2013-05-02 10:33:00,77.1,40.0,30.15,NE,34,2.0,10.0,26,0.00,,,0.00,703,weatherlink.com 1.10,2013-05-02 17:33:00,
2013-05-02 10:48:00,78.2,39.0,30.15,North,355,2.0,11.0,24,0.00,,,0.00,737,weatherlink.com 1.10,2013-05-02 17:48:00,
2013-05-02 11:04:00,79.6,41.0,30.15,North,355,4.0,10.0,25,0.00,,,0.00,766,weatherlink.com 1.10,2013-05-02 18:04:00,
2013-05-02 11:19:00,80.3,39.0,30.15,NNE,19,6.0,9.0,23,0.00,,,0.00,791,weatherlink.com 1.10,2013-05-02 18:19:00,
2013-05-02 11:34:00,80.8,43.0,30.14,NNW,333,1.0,10.0,26,0.00,,,0.00,814,weatherlink.com 1.10,2013-05-02 18:34:00,
2013-05-02 11:49:00,82.0,40.0,30.14,North,355,1.0,11.0,22,0.00,,,0.00,835,weatherlink.com 1.10,2013-05-02 18:49:00,
2013-05-02 12:04:00,82.9,41.0,30.14,NNE,22,7.0,10.0,23,0.00,,,0.00,854,weatherlink.com 1.10,2013-05-02 19:04:00,
2013-05-02 12:19:00,83.4,41.0,30.14,NNE,13,1.0,12.0,22,0.00,,,0.00,868,weatherlink.com 1.10,2013-05-02 19:19:00,
2013-05-02 12:34:00,84.1,42.0,30.13,NNW,336,1.0,11.0,23,0.00,,,0.00,879,weatherlink.com 1.10,2013-05-02 19:34:00,
2013-05-02 12:49:00,84.9,41.0,30.12,NNW,338,3.0,11.0,21,0.00,,,0.00,882,weatherlink.com 1.10,2013-05-02 19:49:00,
2013-05-02 13:04:00,85.6,43.0,30.12,North,355,0.0,9.0,22,0.00,,,0.00,889,weatherlink.com 1.10,2013-05-02 20:04:00,
2013-05-02 13:19:00,86.0,43.0,30.12,NNW,344,5.0,8.0,22,0.00,,,0.00,884,weatherlink.com 1.10,2013-05-02 20:19:00,
2013-05-02 13:34:00,86.5,46.0,30.11,NNE,17,5.0,9.0,24,0.00,,,0.00,875,weatherlink.com 1.10,2013-05-02 20:34:00,
2013-05-02 13:49:00,87.4,45.0,30.11,NNW,342,5.0,9.0,23,0.00,,,0.00,870,weatherlink.com 1.10,2013-05-02 20:49:00,
2013-05-02 14:04:00,88.1,46.0,30.11,NNW,343,5.0,8.0,23,0.00,,,0.00,854,weatherlink.com 1.10,2013-05-02 21:04:00,
2013-05-02 14:19:00,88.5,38.0,30.11,ENE,65,2.0,9.0,17,0.00,,,0.00,840,weatherlink.com 1.10,2013-05-02 21:19:00,
2013-05-02 14:34:00,88.9,45.0,30.10,NNW,348,1.0,7.0,22,0.00,,,0.00,821,weatherlink.com 1.10,2013-05-02 21:34:00,
2013-05-02 14:49:00,89.3,46.0,30.10,North,349,3.0,8.0,22,0.00,,,0.00,793,weatherlink.com 1.10,2013-05-02 21:49:00,
2013-05-02 15:05:00,89.6,42.0,30.09,NNE,12,3.0,8.0,19,0.00,,,0.00,772,weatherlink.com 1.10,2013-05-02 22:05:00,
2013-05-02 15:20:00,90.0,44.0,30.09,NNW,337,5.0,9.0,20,0.00,,,0.00,441,weatherlink.com 1.10,2013-05-02 22:20:00,
2013-05-02 15:35:00,90.0,38.0,30.08,North,355,4.0,10.0,16,0.00,,,0.00,721,weatherlink.com 1.10,2013-05-02 22:35:00,
2013-05-02 15:50:00,90.2,44.0,30.08,NNW,334,3.0,7.0,20,0.00,,,0.00,675,weatherlink.com 1.10,2013-05-02 22:50:00,
2013-05-02 16:05:00,90.3,50.0,30.07,ENE,57,3.0,8.0,25,0.00,,,0.00,642,weatherlink.com 1.10,2013-05-02 23:05:00,
2013-05-02 16:20:00,89.3,50.0,30.07,NNW,347,0.0,4.0,26,0.00,,,0.00,603,weatherlink.com 1.10,2013-05-02 23:20:00,
2013-05-02 16:35:00,87.9,48.0,30.07,North,355,3.0,6.0,25,0.00,,,0.00,566,weatherlink.com 1.10,2013-05-02 23:35:00,
2013-05-02 16:50:00,87.9,53.0,30.06,WNW,302,1.0,6.0,30,0.00,,,0.00,527,weatherlink.com 1.10,2013-05-02 23:50:00,
2013-05-02 17:05:00,87.7,51.0,30.06,NW,313,1.0,5.0,28,0.00,,,0.00,487,weatherlink.com 1.10,2013-05-03 00:05:00,
2013-05-02 17:20:00,87.5,50.0,30.06,NW,315,0.0,7.0,27,0.00,,,0.00,281,weatherlink.com 1.10,2013-05-03 00:20:00,
2013-05-02 17:35:00,87.2,52.0,30.05,NNW,336,3.0,6.0,30,0.00,,,0.00,387,weatherlink.com 1.10,2013-05-03 00:35:00,
2013-05-02 17:50:00,86.8,48.0,30.05,NNW,332,1.0,5.0,26,0.00,,,0.00,345,weatherlink.com 1.10,2013-05-03 00:50:00,
2013-05-02 18:05:00,87.0,56.0,30.05,NNW,333,1.0,3.0,35,0.00,,,0.00,297,weatherlink.com 1.10,2013-05-03 01:05:00,
2013-05-02 18:20:00,86.5,61.0,30.04,NNW,333,1.0,4.0,43,0.00,,,0.00,248,weatherlink.com 1.10,2013-05-03 01:20:00,
2013-05-02 18:35:00,85.5,59.0,30.04,NNW,333,0.0,2.0,41,0.00,,,0.00,202,weatherlink.com 1.10,2013-05-03 01:35:00,
2013-05-02 18:50:00,83.7,63.0,30.04,NNW,333,0.0,2.0,50,0.00,,,0.00,149,weatherlink.com 1.10,2013-05-03 01:50:00,
2013-05-02 19:05:00,80.7,63.0,30.03,NNW,333,0.0,0.0,55,0.00,,,0.00,98,weatherlink.com 1.10,2013-05-03 02:05:00,
2013-05-02 19:20:00,77.5,63.0,30.03,NNW,333,0.0,1.0,61,0.00,,,0.00,53,weatherlink.com 1.10,2013-05-03 02:20:00,
2013-05-02 19:35:00,74.2,62.0,30.03,NNW,333,0.0,1.0,66,0.00,,,0.00,18,weatherlink.com 1.10,2013-05-03 02:35:00,
2013-05-02 19:50:00,71.3,60.0,30.03,NNW,333,0.0,0.0,68,0.00,,,0.00,7,weatherlink.com 1.10,2013-05-03 02:50:00,
2013-05-02 20:05:00,69.6,49.0,30.04,WNW,298,5.0,7.0,49,0.00,,,0.00,0,weatherlink.com 1.10,2013-05-03 03:05:00,
2013-05-02 20:20:00,71.6,45.0,30.04,WNW,290,3.0,9.0,39,0.00,,,0.00,0,weatherlink.com 1.10,2013-05-03 03:20:00,
2013-05-02 20:35:00,71.3,46.0,30.04,WNW,296,2.0,6.0,40,0.00,,,0.00,0,weatherlink.com 1.10,2013-05-03 03:35:00,
2013-05-02 20:50:00,70.2,43.0,30.04,West,279,4.0,6.0,37,0.00,,,0.00,0,weatherlink.com 1.10,2013-05-03 03:50:00,
2013-05-02 21:05:00,68.7,43.0,30.04,WNW,286,1.0,4.0,39,0.00,,,0.00,0,weatherlink.com 1.10,2013-05-03 04:05:00,
2013-05-02 21:20:00,67.3,41.0,30.04,WNW,294,2.0,4.0,39,0.00,,,0.00,0,weatherlink.com 1.10,2013-05-03 04:20:00,
2013-05-02 21:35:00,66.1,40.0,30.04,WNW,287,2.0,4.0,39,0.00,,,0.00,0,weatherlink.com 1.10,2013-05-03 04:35:00,
2013-05-02 21:50:00,65.3,41.0,30.04,West,267,2.0,4.0,41,0.00,,,0.00,0,weatherlink.com 1.10,2013-05-03 04:50:00,
2013-05-02 22:06:00,65.7,42.0,30.04,West,276,2.0,4.0,42,0.00,,,0.00,0,weatherlink.com 1.10,2013-05-03 05:06:00,
2013-05-02 22:21:00,64.7,44.0,30.04,West,276,1.0,2.0,48,0.00,,,0.00,0,weatherlink.com 1.10,2013-05-03 05:21:00,
2013-05-02 22:36:00,63.1,51.0,30.04,West,276,0.0,2.0,64,0.00,,,0.00,0,weatherlink.com 1.10,2013-05-03 05:36:00,
2013-05-02 22:51:00,61.2,51.0,30.04,West,276,0.0,0.0,70,0.00,,,0.00,0,weatherlink.com 1.10,2013-05-03 05:51:00,
2013-05-02 23:06:00,59.6,53.0,30.04,West,276,0.0,0.0,78,0.00,,,0.00,0,weatherlink.com 1.10,2013-05-03 06:06:00,
2013-05-02 23:21:00,58.5,53.0,30.04,West,276,0.0,0.0,82,0.00,,,0.00,0,weatherlink.com 1.10,2013-05-03 06:21:00,
2013-05-02 23:36:00,57.6,53.0,30.04,West,276,0.0,0.0,84,0.00,,,0.00,0,weatherlink.com 1.10,2013-05-03 06:36:00,
2013-05-02 23:51:00,56.9,53.0,30.03,West,276,0.0,0.0,86,0.00,,,0.00,0,weatherlink.com 1.10,2013-05-03 06:51:00,